sensor_id;sensor_type;location;lat;lon;timestamp;P1;durP1;ratioP1;P2;durP2;ratioP2
29534;SDS011;16475;52.650;8.116;2023-07-31T00:01:03;0.80;;;0.80;;
29534;SDS011;16475;52.650;8.116;2023-07-31T00:03:28;1.00;;;1.00;;
29534;SDS011;16475;52.650;8.116;2023-07-31T00:05:53;1.27;;;1.17;;
29534;SDS011;16475;52.650;8.116;2023-07-31T00:08:19;1.10;;;1.10;;
29534;SDS011;16475;52.650;8.116;2023-07-31T00:10:44;1.70;;;1.60;;
29534;SDS011;16475;52.650;8.116;2023-07-31T00:13:09;10.60;;;1.10;;
29534;SDS011;16475;52.650;8.116;2023-07-31T00:15:35;0.97;;;0.97;;
29534;SDS011;16475;52.650;8.116;2023-07-31T00:18:00;1.80;;;1.27;;
29534;SDS011;16475;52.650;8.116;2023-07-31T00:20:26;2.93;;;2.57;;
29534;SDS011;16475;52.650;8.116;2023-07-31T00:22:51;1.13;;;1.10;;
29534;SDS011;16475;52.650;8.116;2023-07-31T00:25:17;1.10;;;1.10;;
29534;SDS011;16475;52.650;8.116;2023-07-31T00:27:42;4.90;;;1.30;;
29534;SDS011;16475;52.650;8.116;2023-07-31T00:30:09;1.40;;;1.30;;
29534;SDS011;16475;52.650;8.116;2023-07-31T00:32:35;1.17;;;1.13;;
29534;SDS011;16475;52.650;8.116;2023-07-31T00:35:01;1.67;;;1.57;;
29534;SDS011;16475;52.650;8.116;2023-07-31T00:37:27;1.03;;;1.03;;
29534;SDS011;16475;52.650;8.116;2023-07-31T00:39:52;1.43;;;1.40;;
29534;SDS011;16475;52.650;8.116;2023-07-31T00:42:18;1.37;;;1.27;;
29534;SDS011;16475;52.650;8.116;2023-07-31T00:44:43;1.47;;;1.37;;
29534;SDS011;16475;52.650;8.116;2023-07-31T00:47:08;1.47;;;1.33;;
29534;SDS011;16475;52.650;8.116;2023-07-31T00:49:34;5.70;;;1.47;;
29534;SDS011;16475;52.650;8.116;2023-07-31T00:51:59;1.67;;;1.57;;
29534;SDS011;16475;52.650;8.116;2023-07-31T00:54:25;8.23;;;2.20;;
29534;SDS011;16475;52.650;8.116;2023-07-31T00:56:50;1.87;;;1.77;;
29534;SDS011;16475;52.650;8.116;2023-07-31T00:59:18;1.60;;;1.47;;
29534;SDS011;16475;52.650;8.116;2023-07-31T01:01:43;1.20;;;1.10;;
29534;SDS011;16475;52.650;8.116;2023-07-31T01:04:09;3.60;;;1.80;;
29534;SDS011;16475;52.650;8.116;2023-07-31T01:06:44;1.60;;;1.60;;
29534;SDS011;16475;52.650;8.116;2023-07-31T01:09:29;2.30;;;1.40;;
29534;SDS011;16475;52.650;8.116;2023-07-31T01:12:02;2.20;;;2.10;;
29534;SDS011;16475;52.650;8.116;2023-07-31T01:14:29;1.80;;;1.70;;
29534;SDS011;16475;52.650;8.116;2023-07-31T01:16:54;1.17;;;1.17;;
29534;SDS011;16475;52.650;8.116;2023-07-31T01:19:21;1.20;;;1.20;;
29534;SDS011;16475;52.650;8.116;2023-07-31T01:24:42;1.63;;;1.53;;
29534;SDS011;16475;52.650;8.116;2023-07-31T01:27:28;7.83;;;1.90;;
29534;SDS011;16475;52.650;8.116;2023-07-31T01:30:00;1.60;;;1.50;;
29534;SDS011;16475;52.650;8.116;2023-07-31T01:32:35;5.80;;;2.50;;
29534;SDS011;16475;52.650;8.116;2023-07-31T01:35:03;1.40;;;1.30;;
29534;SDS011;16475;52.650;8.116;2023-07-31T01:37:29;1.47;;;1.47;;
29534;SDS011;16475;52.650;8.116;2023-07-31T01:39:57;1.90;;;1.47;;
29534;SDS011;16475;52.650;8.116;2023-07-31T01:42:23;1.90;;;1.80;;
29534;SDS011;16475;52.650;8.116;2023-07-31T01:44:48;1.30;;;1.20;;
29534;SDS011;16475;52.650;8.116;2023-07-31T01:47:14;1.40;;;1.40;;
29534;SDS011;16475;52.650;8.116;2023-07-31T01:49:39;1.70;;;1.60;;
29534;SDS011;16475;52.650;8.116;2023-07-31T01:52:05;2.40;;;2.20;;
29534;SDS011;16475;52.650;8.116;2023-07-31T01:54:30;2.50;;;2.03;;
29534;SDS011;16475;52.650;8.116;2023-07-31T01:56:56;2.30;;;1.63;;
29534;SDS011;16475;52.650;8.116;2023-07-31T01:59:21;1.43;;;1.43;;
29534;SDS011;16475;52.650;8.116;2023-07-31T02:01:47;1.83;;;1.80;;
29534;SDS011;16475;52.650;8.116;2023-07-31T02:04:12;1.40;;;1.30;;
29534;SDS011;16475;52.650;8.116;2023-07-31T02:06:39;1.87;;;1.77;;
29534;SDS011;16475;52.650;8.116;2023-07-31T02:09:04;1.73;;;1.63;;
29534;SDS011;16475;52.650;8.116;2023-07-31T02:11:30;7.97;;;2.10;;
29534;SDS011;16475;52.650;8.116;2023-07-31T02:13:55;1.63;;;1.53;;
29534;SDS011;16475;52.650;8.116;2023-07-31T02:16:20;1.53;;;1.53;;
29534;SDS011;16475;52.650;8.116;2023-07-31T02:18:46;2.20;;;2.10;;
29534;SDS011;16475;52.650;8.116;2023-07-31T02:21:11;1.37;;;1.37;;
29534;SDS011;16475;52.650;8.116;2023-07-31T02:23:36;1.50;;;1.40;;
29534;SDS011;16475;52.650;8.116;2023-07-31T02:26:02;1.53;;;1.43;;
29534;SDS011;16475;52.650;8.116;2023-07-31T02:28:28;6.90;;;1.97;;
29534;SDS011;16475;52.650;8.116;2023-07-31T02:30:54;2.67;;;1.00;;
29534;SDS011;16475;52.650;8.116;2023-07-31T02:33:19;1.30;;;1.30;;
29534;SDS011;16475;52.650;8.116;2023-07-31T02:35:44;1.33;;;1.33;;
29534;SDS011;16475;52.650;8.116;2023-07-31T02:38:10;2.60;;;2.10;;
29534;SDS011;16475;52.650;8.116;2023-07-31T02:40:35;1.97;;;1.80;;
29534;SDS011;16475;52.650;8.116;2023-07-31T02:43:00;1.50;;;1.40;;
29534;SDS011;16475;52.650;8.116;2023-07-31T02:45:26;1.20;;;1.20;;
29534;SDS011;16475;52.650;8.116;2023-07-31T02:47:52;1.20;;;1.20;;
29534;SDS011;16475;52.650;8.116;2023-07-31T02:50:17;3.97;;;2.57;;
29534;SDS011;16475;52.650;8.116;2023-07-31T02:52:42;1.00;;;1.00;;
29534;SDS011;16475;52.650;8.116;2023-07-31T02:55:08;1.63;;;1.53;;
29534;SDS011;16475;52.650;8.116;2023-07-31T02:57:33;2.60;;;1.97;;
29534;SDS011;16475;52.650;8.116;2023-07-31T02:59:59;1.10;;;1.10;;
29534;SDS011;16475;52.650;8.116;2023-07-31T03:02:24;1.47;;;1.23;;
29534;SDS011;16475;52.650;8.116;2023-07-31T03:04:49;2.00;;;1.30;;
29534;SDS011;16475;52.650;8.116;2023-07-31T03:07:15;1.60;;;1.53;;
29534;SDS011;16475;52.650;8.116;2023-07-31T03:09:40;1.20;;;1.20;;
29534;SDS011;16475;52.650;8.116;2023-07-31T03:12:07;1.47;;;1.37;;
29534;SDS011;16475;52.650;8.116;2023-07-31T03:14:33;2.37;;;2.13;;
29534;SDS011;16475;52.650;8.116;2023-07-31T03:16:58;1.77;;;1.70;;
29534;SDS011;16475;52.650;8.116;2023-07-31T03:19:24;1.20;;;1.20;;
29534;SDS011;16475;52.650;8.116;2023-07-31T03:21:50;1.20;;;1.20;;
29534;SDS011;16475;52.650;8.116;2023-07-31T03:24:15;1.30;;;1.30;;
29534;SDS011;16475;52.650;8.116;2023-07-31T03:26:40;1.80;;;1.70;;
29534;SDS011;16475;52.650;8.116;2023-07-31T03:29:06;1.00;;;1.00;;
29534;SDS011;16475;52.650;8.116;2023-07-31T03:31:32;1.23;;;1.20;;
29534;SDS011;16475;52.650;8.116;2023-07-31T03:33:57;1.20;;;1.13;;
29534;SDS011;16475;52.650;8.116;2023-07-31T03:36:23;1.20;;;1.20;;
29534;SDS011;16475;52.650;8.116;2023-07-31T03:38:48;1.00;;;1.00;;
29534;SDS011;16475;52.650;8.116;2023-07-31T03:41:13;1.07;;;1.07;;
29534;SDS011;16475;52.650;8.116;2023-07-31T03:43:40;1.67;;;1.57;;
29534;SDS011;16475;52.650;8.116;2023-07-31T03:46:05;1.60;;;1.50;;
29534;SDS011;16475;52.650;8.116;2023-07-31T03:48:31;3.40;;;1.10;;
29534;SDS011;16475;52.650;8.116;2023-07-31T03:50:56;1.00;;;1.00;;
29534;SDS011;16475;52.650;8.116;2023-07-31T03:53:22;1.07;;;1.07;;
29534;SDS011;16475;52.650;8.116;2023-07-31T03:55:47;0.90;;;0.90;;
29534;SDS011;16475;52.650;8.116;2023-07-31T03:58:12;0.90;;;0.90;;
29534;SDS011;16475;52.650;8.116;2023-07-31T04:00:39;1.37;;;1.27;;
29534;SDS011;16475;52.650;8.116;2023-07-31T04:03:04;0.83;;;0.83;;
29534;SDS011;16475;52.650;8.116;2023-07-31T04:05:31;1.23;;;1.13;;
29534;SDS011;16475;52.650;8.116;2023-07-31T04:07:57;0.87;;;0.87;;
29534;SDS011;16475;52.650;8.116;2023-07-31T04:10:24;1.20;;;1.20;;
29534;SDS011;16475;52.650;8.116;2023-07-31T04:12:49;1.60;;;1.53;;
29534;SDS011;16475;52.650;8.116;2023-07-31T04:15:15;1.00;;;1.00;;
29534;SDS011;16475;52.650;8.116;2023-07-31T04:17:40;0.80;;;0.80;;
29534;SDS011;16475;52.650;8.116;2023-07-31T04:20:05;1.00;;;1.00;;
29534;SDS011;16475;52.650;8.116;2023-07-31T04:22:31;17.87;;;1.80;;
29534;SDS011;16475;52.650;8.116;2023-07-31T04:24:57;1.00;;;1.00;;
29534;SDS011;16475;52.650;8.116;2023-07-31T04:27:22;2.60;;;1.30;;
29534;SDS011;16475;52.650;8.116;2023-07-31T04:29:48;1.13;;;1.10;;
29534;SDS011;16475;52.650;8.116;2023-07-31T04:32:13;1.00;;;1.00;;
29534;SDS011;16475;52.650;8.116;2023-07-31T04:34:41;1.13;;;1.13;;
29534;SDS011;16475;52.650;8.116;2023-07-31T04:37:07;1.00;;;1.00;;
29534;SDS011;16475;52.650;8.116;2023-07-31T04:39:32;1.10;;;1.10;;
29534;SDS011;16475;52.650;8.116;2023-07-31T04:41:57;1.00;;;1.00;;
29534;SDS011;16475;52.650;8.116;2023-07-31T04:44:23;0.90;;;0.90;;
29534;SDS011;16475;52.650;8.116;2023-07-31T04:46:48;1.67;;;1.57;;
29534;SDS011;16475;52.650;8.116;2023-07-31T04:49:13;1.53;;;1.27;;
29534;SDS011;16475;52.650;8.116;2023-07-31T04:51:39;0.90;;;0.90;;
29534;SDS011;16475;52.650;8.116;2023-07-31T04:54:04;0.90;;;0.90;;
29534;SDS011;16475;52.650;8.116;2023-07-31T04:56:29;5.03;;;1.10;;
29534;SDS011;16475;52.650;8.116;2023-07-31T04:58:55;1.27;;;1.27;;
29534;SDS011;16475;52.650;8.116;2023-07-31T05:01:20;1.17;;;1.17;;
29534;SDS011;16475;52.650;8.116;2023-07-31T05:03:45;1.07;;;1.07;;
29534;SDS011;16475;52.650;8.116;2023-07-31T05:06:11;0.90;;;0.90;;
29534;SDS011;16475;52.650;8.116;2023-07-31T05:08:38;1.00;;;1.00;;
29534;SDS011;16475;52.650;8.116;2023-07-31T05:11:03;2.67;;;1.10;;
29534;SDS011;16475;52.650;8.116;2023-07-31T05:13:29;1.00;;;1.00;;
29534;SDS011;16475;52.650;8.116;2023-07-31T05:15:55;1.00;;;1.00;;
29534;SDS011;16475;52.650;8.116;2023-07-31T05:18:20;1.10;;;1.10;;
29534;SDS011;16475;52.650;8.116;2023-07-31T05:20:45;1.10;;;1.10;;
29534;SDS011;16475;52.650;8.116;2023-07-31T05:23:10;2.67;;;1.03;;
29534;SDS011;16475;52.650;8.116;2023-07-31T05:25:36;0.90;;;0.90;;
29534;SDS011;16475;52.650;8.116;2023-07-31T05:28:01;2.57;;;1.20;;
29534;SDS011;16475;52.650;8.116;2023-07-31T05:30:26;1.43;;;1.43;;
29534;SDS011;16475;52.650;8.116;2023-07-31T05:32:55;1.00;;;1.00;;
29534;SDS011;16475;52.650;8.116;2023-07-31T05:35:20;2.57;;;2.03;;
29534;SDS011;16475;52.650;8.116;2023-07-31T05:37:46;1.47;;;1.37;;
29534;SDS011;16475;52.650;8.116;2023-07-31T05:40:11;0.90;;;0.90;;
29534;SDS011;16475;52.650;8.116;2023-07-31T05:42:37;1.00;;;1.00;;
29534;SDS011;16475;52.650;8.116;2023-07-31T05:45:03;1.37;;;1.37;;
29534;SDS011;16475;52.650;8.116;2023-07-31T05:47:30;0.90;;;0.90;;
29534;SDS011;16475;52.650;8.116;2023-07-31T05:49:55;2.90;;;1.93;;
29534;SDS011;16475;52.650;8.116;2023-07-31T05:52:20;3.30;;;1.80;;
29534;SDS011;16475;52.650;8.116;2023-07-31T05:54:46;1.67;;;1.67;;
29534;SDS011;16475;52.650;8.116;2023-07-31T05:57:11;3.30;;;3.00;;
29534;SDS011;16475;52.650;8.116;2023-07-31T05:59:37;1.93;;;1.83;;
29534;SDS011;16475;52.650;8.116;2023-07-31T06:02:02;2.47;;;2.37;;
29534;SDS011;16475;52.650;8.116;2023-07-31T06:04:28;2.83;;;2.20;;
29534;SDS011;16475;52.650;8.116;2023-07-31T06:06:53;6.03;;;3.00;;
29534;SDS011;16475;52.650;8.116;2023-07-31T06:09:19;3.13;;;2.93;;
29534;SDS011;16475;52.650;8.116;2023-07-31T06:11:45;3.23;;;2.03;;
29534;SDS011;16475;52.650;8.116;2023-07-31T06:14:10;13.03;;;3.50;;
29534;SDS011;16475;52.650;8.116;2023-07-31T06:16:36;3.47;;;3.00;;
29534;SDS011;16475;52.650;8.116;2023-07-31T06:19:01;2.53;;;2.30;;
29534;SDS011;16475;52.650;8.116;2023-07-31T06:21:26;6.43;;;5.70;;
29534;SDS011;16475;52.650;8.116;2023-07-31T06:23:52;3.60;;;3.33;;
29534;SDS011;16475;52.650;8.116;2023-07-31T06:26:17;7.37;;;3.77;;
29534;SDS011;16475;52.650;8.116;2023-07-31T06:28:43;8.23;;;3.93;;
29534;SDS011;16475;52.650;8.116;2023-07-31T06:31:09;32.47;;;5.80;;
29534;SDS011;16475;52.650;8.116;2023-07-31T06:33:34;4.03;;;3.47;;
29534;SDS011;16475;52.650;8.116;2023-07-31T06:36:00;9.00;;;4.37;;
29534;SDS011;16475;52.650;8.116;2023-07-31T06:38:28;8.77;;;4.00;;
29534;SDS011;16475;52.650;8.116;2023-07-31T06:40:53;11.63;;;4.80;;
29534;SDS011;16475;52.650;8.116;2023-07-31T06:43:18;18.33;;;4.77;;
29534;SDS011;16475;52.650;8.116;2023-07-31T06:45:44;4.07;;;3.77;;
29534;SDS011;16475;52.650;8.116;2023-07-31T06:48:09;6.60;;;4.40;;
29534;SDS011;16475;52.650;8.116;2023-07-31T06:50:35;10.13;;;3.87;;
29534;SDS011;16475;52.650;8.116;2023-07-31T06:53:01;4.13;;;3.83;;
29534;SDS011;16475;52.650;8.116;2023-07-31T06:55:27;7.93;;;5.77;;
29534;SDS011;16475;52.650;8.116;2023-07-31T06:57:53;3.27;;;3.07;;
29534;SDS011;16475;52.650;8.116;2023-07-31T07:00:20;4.47;;;4.13;;
29534;SDS011;16475;52.650;8.116;2023-07-31T07:02:46;8.20;;;4.10;;
29534;SDS011;16475;52.650;8.116;2023-07-31T07:05:15;8.40;;;4.80;;
29534;SDS011;16475;52.650;8.116;2023-07-31T07:07:41;10.27;;;4.47;;
29534;SDS011;16475;52.650;8.116;2023-07-31T07:10:07;18.47;;;5.80;;
29534;SDS011;16475;52.650;8.116;2023-07-31T07:12:32;5.13;;;4.63;;
29534;SDS011;16475;52.650;8.116;2023-07-31T07:14:58;4.90;;;4.40;;
29534;SDS011;16475;52.650;8.116;2023-07-31T07:17:24;11.83;;;5.40;;
29534;SDS011;16475;52.650;8.116;2023-07-31T07:19:50;7.67;;;4.53;;
29534;SDS011;16475;52.650;8.116;2023-07-31T07:22:15;51.60;;;7.00;;
29534;SDS011;16475;52.650;8.116;2023-07-31T07:24:41;7.00;;;3.47;;
29534;SDS011;16475;52.650;8.116;2023-07-31T07:27:07;8.33;;;3.70;;
29534;SDS011;16475;52.650;8.116;2023-07-31T07:29:33;7.93;;;3.60;;
29534;SDS011;16475;52.650;8.116;2023-07-31T07:31:59;6.33;;;3.67;;
29534;SDS011;16475;52.650;8.116;2023-07-31T07:34:28;5.30;;;3.10;;
29534;SDS011;16475;52.650;8.116;2023-07-31T07:36:53;17.80;;;4.80;;
29534;SDS011;16475;52.650;8.116;2023-07-31T07:39:19;4.23;;;3.83;;
29534;SDS011;16475;52.650;8.116;2023-07-31T07:41:45;3.70;;;3.50;;
29534;SDS011;16475;52.650;8.116;2023-07-31T07:44:10;22.90;;;4.20;;
29534;SDS011;16475;52.650;8.116;2023-07-31T07:46:36;17.13;;;3.40;;
29534;SDS011;16475;52.650;8.116;2023-07-31T07:49:01;25.37;;;4.40;;
29534;SDS011;16475;52.650;8.116;2023-07-31T07:51:26;9.97;;;3.57;;
29534;SDS011;16475;52.650;8.116;2023-07-31T07:53:53;10.83;;;4.13;;
29534;SDS011;16475;52.650;8.116;2023-07-31T07:56:19;10.57;;;2.70;;
29534;SDS011;16475;52.650;8.116;2023-07-31T07:58:44;8.67;;;3.40;;
29534;SDS011;16475;52.650;8.116;2023-07-31T08:01:09;10.03;;;3.90;;
29534;SDS011;16475;52.650;8.116;2023-07-31T08:03:34;4.87;;;2.60;;
29534;SDS011;16475;52.650;8.116;2023-07-31T08:06:00;5.47;;;1.90;;
29534;SDS011;16475;52.650;8.116;2023-07-31T08:08:26;2.83;;;2.53;;
29534;SDS011;16475;52.650;8.116;2023-07-31T08:10:52;4.60;;;3.23;;
29534;SDS011;16475;52.650;8.116;2023-07-31T08:13:17;3.23;;;2.83;;
29534;SDS011;16475;52.650;8.116;2023-07-31T08:15:43;2.27;;;2.10;;
29534;SDS011;16475;52.650;8.116;2023-07-31T08:18:08;9.57;;;4.60;;
29534;SDS011;16475;52.650;8.116;2023-07-31T08:20:34;2.57;;;2.47;;
29534;SDS011;16475;52.650;8.116;2023-07-31T08:22:59;2.30;;;2.20;;
29534;SDS011;16475;52.650;8.116;2023-07-31T08:25:25;10.60;;;3.80;;
29534;SDS011;16475;52.650;8.116;2023-07-31T08:27:50;2.70;;;2.50;;
29534;SDS011;16475;52.650;8.116;2023-07-31T08:30:17;10.63;;;2.53;;
29534;SDS011;16475;52.650;8.116;2023-07-31T08:32:43;1.63;;;1.63;;
29534;SDS011;16475;52.650;8.116;2023-07-31T08:35:08;7.50;;;2.80;;
29534;SDS011;16475;52.650;8.116;2023-07-31T08:37:34;4.23;;;2.67;;
29534;SDS011;16475;52.650;8.116;2023-07-31T08:39:59;16.13;;;2.80;;
29534;SDS011;16475;52.650;8.116;2023-07-31T08:42:25;3.70;;;2.03;;
29534;SDS011;16475;52.650;8.116;2023-07-31T08:44:50;9.43;;;3.60;;
29534;SDS011;16475;52.650;8.116;2023-07-31T08:47:16;2.47;;;1.80;;
29534;SDS011;16475;52.650;8.116;2023-07-31T08:49:42;2.70;;;2.43;;
29534;SDS011;16475;52.650;8.116;2023-07-31T08:52:07;3.60;;;2.50;;
29534;SDS011;16475;52.650;8.116;2023-07-31T08:54:32;3.20;;;2.20;;
29534;SDS011;16475;52.650;8.116;2023-07-31T08:56:58;2.97;;;2.40;;
29534;SDS011;16475;52.650;8.116;2023-07-31T08:59:25;4.33;;;2.63;;
29534;SDS011;16475;52.650;8.116;2023-07-31T09:01:53;1.10;;;1.10;;
29534;SDS011;16475;52.650;8.116;2023-07-31T09:04:19;3.40;;;1.90;;
29534;SDS011;16475;52.650;8.116;2023-07-31T09:06:45;7.00;;;3.00;;
29534;SDS011;16475;52.650;8.116;2023-07-31T09:09:12;1.60;;;1.53;;
29534;SDS011;16475;52.650;8.116;2023-07-31T09:11:37;2.30;;;1.93;;
29534;SDS011;16475;52.650;8.116;2023-07-31T09:14:02;1.60;;;1.60;;
29534;SDS011;16475;52.650;8.116;2023-07-31T09:16:33;1.40;;;1.40;;
29534;SDS011;16475;52.650;8.116;2023-07-31T09:18:59;1.20;;;1.20;;
29534;SDS011;16475;52.650;8.116;2023-07-31T09:21:26;1.40;;;1.30;;
29534;SDS011;16475;52.650;8.116;2023-07-31T09:23:52;1.30;;;1.20;;
29534;SDS011;16475;52.650;8.116;2023-07-31T09:26:32;4.50;;;1.50;;
29534;SDS011;16475;52.650;8.116;2023-07-31T09:28:59;1.47;;;1.37;;
29534;SDS011;16475;52.650;8.116;2023-07-31T09:31:32;1.00;;;1.00;;
29534;SDS011;16475;52.650;8.116;2023-07-31T09:34:04;1.27;;;1.27;;
29534;SDS011;16475;52.650;8.116;2023-07-31T09:36:29;1.03;;;1.03;;
29534;SDS011;16475;52.650;8.116;2023-07-31T09:38:56;1.43;;;1.17;;
29534;SDS011;16475;52.650;8.116;2023-07-31T09:41:26;0.90;;;0.90;;
29534;SDS011;16475;52.650;8.116;2023-07-31T09:43:55;0.90;;;0.90;;
29534;SDS011;16475;52.650;8.116;2023-07-31T09:46:20;1.20;;;1.10;;
29534;SDS011;16475;52.650;8.116;2023-07-31T09:48:46;1.77;;;1.70;;
29534;SDS011;16475;52.650;8.116;2023-07-31T09:51:12;0.80;;;0.80;;
29534;SDS011;16475;52.650;8.116;2023-07-31T09:53:37;3.50;;;1.00;;
29534;SDS011;16475;52.650;8.116;2023-07-31T09:56:03;1.00;;;1.00;;
29534;SDS011;16475;52.650;8.116;2023-07-31T09:58:29;1.13;;;1.13;;
29534;SDS011;16475;52.650;8.116;2023-07-31T10:00:55;6.20;;;1.60;;
29534;SDS011;16475;52.650;8.116;2023-07-31T10:03:22;1.03;;;0.90;;
29534;SDS011;16475;52.650;8.116;2023-07-31T10:05:49;1.17;;;1.17;;
29534;SDS011;16475;52.650;8.116;2023-07-31T10:08:15;0.93;;;0.93;;
29534;SDS011;16475;52.650;8.116;2023-07-31T10:10:41;9.00;;;1.73;;
29534;SDS011;16475;52.650;8.116;2023-07-31T10:13:07;1.20;;;1.10;;
29534;SDS011;16475;52.650;8.116;2023-07-31T10:15:33;1.10;;;1.10;;
29534;SDS011;16475;52.650;8.116;2023-07-31T10:17:59;1.03;;;1.03;;
29534;SDS011;16475;52.650;8.116;2023-07-31T10:20:25;2.10;;;0.90;;
29534;SDS011;16475;52.650;8.116;2023-07-31T10:22:52;1.00;;;1.00;;
29534;SDS011;16475;52.650;8.116;2023-07-31T10:25:22;1.23;;;1.13;;
29534;SDS011;16475;52.650;8.116;2023-07-31T10:27:49;1.30;;;1.30;;
29534;SDS011;16475;52.650;8.116;2023-07-31T10:30:15;0.80;;;0.80;;
29534;SDS011;16475;52.650;8.116;2023-07-31T10:32:43;0.90;;;0.90;;
29534;SDS011;16475;52.650;8.116;2023-07-31T10:35:09;0.80;;;0.80;;
29534;SDS011;16475;52.650;8.116;2023-07-31T10:37:38;0.80;;;0.80;;
29534;SDS011;16475;52.650;8.116;2023-07-31T10:40:06;0.80;;;0.80;;
29534;SDS011;16475;52.650;8.116;2023-07-31T10:42:35;1.13;;;0.87;;
29534;SDS011;16475;52.650;8.116;2023-07-31T10:45:04;0.80;;;0.80;;
29534;SDS011;16475;52.650;8.116;2023-07-31T10:47:36;0.80;;;0.80;;
29534;SDS011;16475;52.650;8.116;2023-07-31T10:50:10;1.13;;;0.90;;
29534;SDS011;16475;52.650;8.116;2023-07-31T10:52:36;1.00;;;1.00;;
29534;SDS011;16475;52.650;8.116;2023-07-31T10:55:14;0.90;;;0.90;;
29534;SDS011;16475;52.650;8.116;2023-07-31T10:57:39;1.03;;;0.80;;
29534;SDS011;16475;52.650;8.116;2023-07-31T11:00:23;0.80;;;0.80;;
29534;SDS011;16475;52.650;8.116;2023-07-31T11:11:18;1.00;;;1.00;;
29534;SDS011;16475;52.650;8.116;2023-07-31T11:13:48;0.80;;;0.80;;
29534;SDS011;16475;52.650;8.116;2023-07-31T11:16:15;0.80;;;0.80;;
29534;SDS011;16475;52.650;8.116;2023-07-31T11:18:42;0.80;;;0.80;;
29534;SDS011;16475;52.650;8.116;2023-07-31T11:21:12;1.00;;;1.00;;
29534;SDS011;16475;52.650;8.116;2023-07-31T11:23:39;1.17;;;1.17;;
29534;SDS011;16475;52.650;8.116;2023-07-31T11:26:04;2.10;;;1.60;;
29534;SDS011;16475;52.650;8.116;2023-07-31T11:28:31;0.90;;;0.90;;
29534;SDS011;16475;52.650;8.116;2023-07-31T11:30:58;1.17;;;1.17;;
29534;SDS011;16475;52.650;8.116;2023-07-31T11:33:24;1.00;;;1.00;;
29534;SDS011;16475;52.650;8.116;2023-07-31T11:35:49;2.70;;;0.97;;
29534;SDS011;16475;52.650;8.116;2023-07-31T11:38:21;0.90;;;0.90;;
29534;SDS011;16475;52.650;8.116;2023-07-31T11:40:50;1.43;;;1.20;;
29534;SDS011;16475;52.650;8.116;2023-07-31T11:43:16;1.17;;;1.17;;
29534;SDS011;16475;52.650;8.116;2023-07-31T11:45:45;1.07;;;1.07;;
29534;SDS011;16475;52.650;8.116;2023-07-31T11:48:22;0.90;;;0.90;;
29534;SDS011;16475;52.650;8.116;2023-07-31T11:50:52;1.47;;;1.20;;
29534;SDS011;16475;52.650;8.116;2023-07-31T11:53:41;1.50;;;1.10;;
29534;SDS011;16475;52.650;8.116;2023-07-31T11:56:12;1.30;;;1.30;;
29534;SDS011;16475;52.650;8.116;2023-07-31T11:58:39;1.07;;;1.07;;
29534;SDS011;16475;52.650;8.116;2023-07-31T12:01:06;0.90;;;0.90;;
29534;SDS011;16475;52.650;8.116;2023-07-31T12:03:31;1.40;;;1.30;;
29534;SDS011;16475;52.650;8.116;2023-07-31T12:05:58;1.10;;;1.10;;
29534;SDS011;16475;52.650;8.116;2023-07-31T12:08:24;1.03;;;1.03;;
29534;SDS011;16475;52.650;8.116;2023-07-31T12:10:51;2.10;;;1.30;;
29534;SDS011;16475;52.650;8.116;2023-07-31T12:13:23;1.17;;;1.17;;
29534;SDS011;16475;52.650;8.116;2023-07-31T12:15:55;1.10;;;1.10;;
29534;SDS011;16475;52.650;8.116;2023-07-31T12:18:21;3.03;;;1.10;;
29534;SDS011;16475;52.650;8.116;2023-07-31T12:20:57;0.90;;;0.90;;
29534;SDS011;16475;52.650;8.116;2023-07-31T12:23:25;1.20;;;1.20;;
29534;SDS011;16475;52.650;8.116;2023-07-31T12:28:28;1.00;;;1.00;;
29534;SDS011;16475;52.650;8.116;2023-07-31T12:30:58;1.20;;;1.10;;
29534;SDS011;16475;52.650;8.116;2023-07-31T12:33:29;3.23;;;1.27;;
29534;SDS011;16475;52.650;8.116;2023-07-31T12:35:56;1.90;;;1.77;;
29534;SDS011;16475;52.650;8.116;2023-07-31T12:38:23;1.63;;;1.53;;
29534;SDS011;16475;52.650;8.116;2023-07-31T12:40:49;1.10;;;1.10;;
29534;SDS011;16475;52.650;8.116;2023-07-31T12:43:15;1.40;;;1.40;;
29534;SDS011;16475;52.650;8.116;2023-07-31T12:45:40;1.83;;;1.73;;
29534;SDS011;16475;52.650;8.116;2023-07-31T12:48:06;1.73;;;1.50;;
29534;SDS011;16475;52.650;8.116;2023-07-31T12:50:31;1.53;;;1.33;;
29534;SDS011;16475;52.650;8.116;2023-07-31T12:52:57;3.90;;;2.00;;
29534;SDS011;16475;52.650;8.116;2023-07-31T12:55:22;1.30;;;1.27;;
29534;SDS011;16475;52.650;8.116;2023-07-31T12:57:48;1.47;;;1.47;;
29534;SDS011;16475;52.650;8.116;2023-07-31T13:00:14;1.87;;;1.77;;
29534;SDS011;16475;52.650;8.116;2023-07-31T13:02:39;9.33;;;1.43;;
29534;SDS011;16475;52.650;8.116;2023-07-31T13:05:05;1.50;;;1.40;;
29534;SDS011;16475;52.650;8.116;2023-07-31T13:07:31;3.10;;;2.30;;
29534;SDS011;16475;52.650;8.116;2023-07-31T13:09:56;1.83;;;1.73;;
29534;SDS011;16475;52.650;8.116;2023-07-31T13:12:22;1.70;;;1.60;;
29534;SDS011;16475;52.650;8.116;2023-07-31T13:14:47;1.43;;;1.33;;
29534;SDS011;16475;52.650;8.116;2023-07-31T13:17:13;5.50;;;2.53;;
29534;SDS011;16475;52.650;8.116;2023-07-31T13:19:38;3.73;;;2.70;;
29534;SDS011;16475;52.650;8.116;2023-07-31T13:22:05;1.90;;;1.80;;
29534;SDS011;16475;52.650;8.116;2023-07-31T13:24:31;1.90;;;1.90;;
29534;SDS011;16475;52.650;8.116;2023-07-31T13:26:56;6.47;;;2.80;;
29534;SDS011;16475;52.650;8.116;2023-07-31T13:29:22;3.50;;;2.43;;
29534;SDS011;16475;52.650;8.116;2023-07-31T13:31:48;2.37;;;2.27;;
29534;SDS011;16475;52.650;8.116;2023-07-31T13:34:14;3.03;;;2.43;;
29534;SDS011;16475;52.650;8.116;2023-07-31T13:36:39;3.03;;;2.30;;
29534;SDS011;16475;52.650;8.116;2023-07-31T13:39:05;5.60;;;2.20;;
29534;SDS011;16475;52.650;8.116;2023-07-31T13:41:30;2.30;;;2.20;;
29534;SDS011;16475;52.650;8.116;2023-07-31T13:43:56;2.27;;;2.07;;
29534;SDS011;16475;52.650;8.116;2023-07-31T13:46:21;2.40;;;2.20;;
29534;SDS011;16475;52.650;8.116;2023-07-31T13:48:46;3.53;;;2.37;;
29534;SDS011;16475;52.650;8.116;2023-07-31T13:51:12;2.70;;;2.47;;
29534;SDS011;16475;52.650;8.116;2023-07-31T13:53:37;2.23;;;2.13;;
29534;SDS011;16475;52.650;8.116;2023-07-31T13:56:02;1.87;;;1.77;;
29534;SDS011;16475;52.650;8.116;2023-07-31T13:58:28;3.53;;;2.10;;
29534;SDS011;16475;52.650;8.116;2023-07-31T14:00:53;1.53;;;1.40;;
29534;SDS011;16475;52.650;8.116;2023-07-31T14:03:18;2.07;;;1.90;;
29534;SDS011;16475;52.650;8.116;2023-07-31T14:05:44;2.30;;;2.10;;
29534;SDS011;16475;52.650;8.116;2023-07-31T14:08:10;2.27;;;2.17;;
29534;SDS011;16475;52.650;8.116;2023-07-31T14:10:35;2.53;;;2.37;;
29534;SDS011;16475;52.650;8.116;2023-07-31T14:13:01;1.50;;;1.40;;
29534;SDS011;16475;52.650;8.116;2023-07-31T14:15:26;1.60;;;1.50;;
29534;SDS011;16475;52.650;8.116;2023-07-31T14:17:52;1.73;;;1.63;;
29534;SDS011;16475;52.650;8.116;2023-07-31T14:20:17;1.63;;;1.53;;
29534;SDS011;16475;52.650;8.116;2023-07-31T14:22:42;3.80;;;1.23;;
29534;SDS011;16475;52.650;8.116;2023-07-31T14:25:08;2.03;;;1.93;;
29534;SDS011;16475;52.650;8.116;2023-07-31T14:27:35;3.40;;;2.40;;
29534;SDS011;16475;52.650;8.116;2023-07-31T14:30:00;8.40;;;2.57;;
29534;SDS011;16475;52.650;8.116;2023-07-31T14:32:25;5.40;;;4.23;;
29534;SDS011;16475;52.650;8.116;2023-07-31T14:34:51;1.43;;;1.37;;
29534;SDS011;16475;52.650;8.116;2023-07-31T14:37:18;1.27;;;1.27;;
29534;SDS011;16475;52.650;8.116;2023-07-31T14:39:43;5.60;;;2.80;;
29534;SDS011;16475;52.650;8.116;2023-07-31T14:42:09;2.73;;;2.53;;
29534;SDS011;16475;52.650;8.116;2023-07-31T14:44:34;1.67;;;1.57;;
29534;SDS011;16475;52.650;8.116;2023-07-31T14:46:59;5.13;;;1.93;;
29534;SDS011;16475;52.650;8.116;2023-07-31T14:49:25;3.40;;;2.23;;
29534;SDS011;16475;52.650;8.116;2023-07-31T14:51:52;4.50;;;1.67;;
29534;SDS011;16475;52.650;8.116;2023-07-31T14:54:17;2.30;;;2.20;;
29534;SDS011;16475;52.650;8.116;2023-07-31T14:56:43;3.30;;;2.40;;